createdAt,value
2023-01-09T00:01:47.733Z,43.67
2023-01-09T00:04:16.035Z,56.87
2023-01-09T00:06:53.772Z,44.27
2023-01-09T00:09:22.585Z,40.90
2023-01-09T00:11:50.801Z,46.70
2023-01-09T00:14:19.471Z,40.27
2023-01-09T00:16:47.915Z,39.10
2023-01-09T00:19:16.037Z,45.57
2023-01-09T00:21:45.592Z,38.93
2023-01-09T00:24:14.793Z,41.20
2023-01-09T00:26:42.912Z,41.40
2023-01-09T00:29:12.181Z,35.07
2023-01-09T00:31:40.476Z,38.23
2023-01-09T00:34:10.778Z,38.73
2023-01-09T00:36:38.860Z,35.57
2023-01-09T00:39:08.336Z,39.80
2023-01-09T00:41:39.927Z,39.93
2023-01-09T00:44:13.083Z,41.20
2023-01-09T00:46:45.036Z,38.57
2023-01-09T00:49:16.495Z,39.03
2023-01-09T00:51:44.813Z,38.60
2023-01-09T00:54:17.755Z,38.70
2023-01-09T00:56:46.072Z,41.73
2023-01-09T00:59:14.264Z,41.03
2023-01-09T01:01:42.573Z,39.70
2023-01-09T01:04:28.384Z,40.50
2023-01-09T01:07:13.815Z,41.83
2023-01-09T01:09:43.405Z,40.93
2023-01-09T01:12:11.557Z,35.83
2023-01-09T01:14:40.723Z,42.93
2023-01-09T01:17:09.401Z,41.37
2023-01-09T01:19:37.753Z,44.43
2023-01-09T01:22:06.040Z,45.40
2023-01-09T01:24:35.080Z,41.43
2023-01-09T01:27:04.696Z,46.67
2023-01-09T01:29:32.844Z,46.40
2023-01-09T01:32:01.001Z,43.27
2023-01-09T01:34:32.500Z,43.03
2023-01-09T01:37:00.601Z,44.80
2023-01-09T01:39:28.745Z,48.10
2023-01-09T01:41:56.919Z,43.17
2023-01-09T01:45:00.950Z,48.17
2023-01-09T01:47:56.187Z,46.93
2023-01-09T01:50:30.708Z,51.30
2023-01-09T01:53:08.280Z,45.90
2023-01-09T01:55:40.342Z,46.57
2023-01-09T01:58:11.984Z,45.50
2023-01-09T02:00:45.005Z,44.30
2023-01-09T02:03:16.963Z,45.50
2023-01-09T02:05:46.516Z,44.33
2023-01-09T02:08:15.669Z,44.97
2023-01-09T02:10:45.806Z,41.83
2023-01-09T02:13:14.878Z,43.10
2023-01-09T02:15:56.981Z,46.90
2023-01-09T02:18:46.267Z,45.80
2023-01-09T02:21:23.588Z,48.03
2023-01-09T02:24:11.273Z,46.33
2023-01-09T02:27:02.995Z,44.37
2023-01-09T02:30:09.982Z,50.60
2023-01-09T02:32:47.380Z,47.57
2023-01-09T02:35:29.052Z,47.03
2023-01-09T02:38:04.793Z,45.43
2023-01-09T02:40:38.555Z,43.93
2023-01-09T02:43:08.527Z,48.83
2023-01-09T02:45:36.883Z,47.80
2023-01-09T02:48:07.103Z,52.37
2023-01-09T02:50:40.630Z,45.40
2023-01-09T02:53:42.198Z,41.90
2023-01-09T02:56:34.770Z,41.97
2023-01-09T02:59:21.095Z,43.47
2023-01-09T03:01:59.301Z,40.00
2023-01-09T03:04:38.505Z,42.97
2023-01-09T03:07:14.669Z,47.67
2023-01-09T03:09:45.084Z,53.90
2023-01-09T03:12:18.856Z,45.63
2023-01-09T03:14:49.941Z,50.60
2023-01-09T03:17:28.006Z,45.53
2023-01-09T03:19:59.459Z,47.80
2023-01-09T03:22:27.612Z,44.57
2023-01-09T03:24:56.393Z,43.60
2023-01-09T03:27:24.683Z,44.70
2023-01-09T03:29:53.458Z,48.63
2023-01-09T03:32:21.569Z,45.47
2023-01-09T03:34:49.737Z,42.10
2023-01-09T03:37:19.342Z,44.20
2023-01-09T03:39:47.512Z,42.13
2023-01-09T03:42:15.876Z,46.13
2023-01-09T03:44:44.029Z,42.67
2023-01-09T03:47:12.128Z,38.53
2023-01-09T03:49:40.516Z,38.80
2023-01-09T03:52:09.579Z,41.83
2023-01-09T03:54:40.491Z,40.27
2023-01-09T03:57:09.576Z,40.03
2023-01-09T03:59:37.761Z,42.90
2023-01-09T04:02:06.079Z,41.60
2023-01-09T04:04:34.277Z,40.83
2023-01-09T04:07:02.422Z,38.73
2023-01-09T04:09:30.594Z,40.30
2023-01-09T04:12:00.119Z,39.20
2023-01-09T04:14:28.097Z,41.13
2023-01-09T04:16:56.200Z,47.63
2023-01-09T04:19:24.423Z,40.10
2023-01-09T04:21:52.588Z,43.60
2023-01-09T04:24:21.620Z,46.47
2023-01-09T04:26:49.805Z,42.00
2023-01-09T04:29:19.321Z,49.40
2023-01-09T04:31:47.415Z,40.07
2023-01-09T04:34:15.665Z,39.57
2023-01-09T04:36:44.139Z,37.53
2023-01-09T04:39:12.273Z,41.30
2023-01-09T04:41:52.971Z,46.07
2023-01-09T04:44:26.287Z,44.83
2023-01-09T04:46:56.241Z,42.70
2023-01-09T04:49:24.749Z,42.40
2023-01-09T04:51:53.102Z,42.23
2023-01-09T04:54:21.716Z,43.03
2023-01-09T04:56:50.191Z,41.63
2023-01-09T04:59:18.581Z,45.47
2023-01-09T05:01:48.188Z,37.07
2023-01-09T05:04:16.640Z,40.27
2023-01-09T05:06:44.879Z,43.23
2023-01-09T05:09:13.124Z,46.80
2023-01-09T05:11:42.052Z,47.77
2023-01-09T05:14:10.451Z,47.20
2023-01-09T05:16:38.533Z,40.67
2023-01-09T05:19:08.057Z,35.97
2023-01-09T05:21:36.317Z,35.93
2023-01-09T05:24:04.329Z,42.90
2023-01-09T05:26:32.525Z,41.27
2023-01-09T05:29:00.629Z,46.57
2023-01-09T05:31:29.036Z,45.47
2023-01-09T05:33:59.308Z,44.67
2023-01-09T05:36:29.455Z,43.10
2023-01-09T05:38:58.427Z,39.77
2023-01-09T05:41:26.704Z,41.80
2023-01-09T05:43:54.779Z,43.33
2023-01-09T05:46:22.932Z,43.83
2023-01-09T05:48:52.567Z,40.13
2023-01-09T05:51:20.658Z,49.80
2023-01-09T05:53:50.345Z,37.13
2023-01-09T05:56:18.846Z,36.67
2023-01-09T05:58:47.046Z,38.97
2023-01-09T06:01:15.575Z,73.27
2023-01-09T06:03:45.281Z,58.40
2023-01-09T06:06:13.569Z,46.03
2023-01-09T06:08:41.677Z,51.63
2023-01-09T06:11:11.142Z,56.73
2023-01-09T06:13:39.210Z,44.63
2023-01-09T06:16:08.553Z,41.03
2023-01-09T06:18:36.848Z,44.80
2023-01-09T06:21:05.462Z,44.13
2023-01-09T06:23:33.554Z,38.33
2023-01-09T06:26:01.769Z,47.90
2023-01-09T06:28:31.304Z,151.73
2023-01-09T06:30:59.342Z,62.30
2023-01-09T06:33:27.585Z,50.47
2023-01-09T06:35:55.764Z,40.80
2023-01-09T06:38:23.826Z,37.70
2023-01-09T06:40:51.893Z,42.27
2023-01-09T06:43:20.019Z,46.03
2023-01-09T06:45:49.674Z,34.50
2023-01-09T06:48:17.845Z,38.57
2023-01-09T06:50:48.869Z,36.30
2023-01-09T06:53:16.951Z,38.63
2023-01-09T06:55:45.693Z,38.87
2023-01-09T06:58:14.386Z,50.27
2023-01-09T07:00:42.769Z,38.53
2023-01-09T07:03:12.467Z,56.07
2023-01-09T07:05:44.095Z,47.17
2023-01-09T07:08:12.166Z,51.73
2023-01-09T07:10:40.380Z,54.67
2023-01-09T07:13:08.521Z,54.33
2023-01-09T07:15:37.009Z,52.60
2023-01-09T07:18:05.733Z,58.83
2023-01-09T07:20:35.207Z,53.87
2023-01-09T07:23:03.284Z,55.03
2023-01-09T07:25:31.406Z,55.80
2023-01-09T07:27:59.634Z,56.97
2023-01-09T07:30:27.761Z,45.70
2023-01-09T07:32:55.823Z,52.27
2023-01-09T07:35:23.881Z,40.33
2023-01-09T07:37:53.299Z,38.17
2023-01-09T07:40:21.474Z,44.13
2023-01-09T07:42:49.615Z,40.87
2023-01-09T07:45:17.818Z,44.77
2023-01-09T07:47:46.051Z,42.10
2023-01-09T07:50:14.261Z,51.57
2023-01-09T07:52:42.678Z,39.13
2023-01-09T07:55:13.360Z,47.67
2023-01-09T07:57:41.800Z,44.27
2023-01-09T08:00:11.496Z,42.20
2023-01-09T08:02:39.724Z,45.87
2023-01-09T08:05:13.712Z,47.87
2023-01-09T08:07:41.861Z,48.63
2023-01-09T08:10:13.360Z,50.23
2023-01-09T08:12:45.050Z,46.63
2023-01-09T08:15:13.546Z,55.73
2023-01-09T08:17:44.205Z,49.23
2023-01-09T08:20:18.444Z,62.13
2023-01-09T08:22:50.714Z,68.17
2023-01-09T08:25:20.491Z,73.17
2023-01-09T08:27:48.807Z,82.70
2023-01-09T08:30:17.605Z,74.83
2023-01-09T08:32:50.748Z,108.60
2023-01-09T08:35:19.171Z,86.03
2023-01-09T08:37:47.594Z,99.60
2023-01-09T08:40:16.949Z,92.83
2023-01-09T08:43:04.496Z,99.23
2023-01-09T08:45:51.326Z,85.77
2023-01-09T08:48:19.609Z,82.20
2023-01-09T08:50:47.835Z,86.40
2023-01-09T08:53:16.728Z,102.77
2023-01-09T08:55:45.430Z,122.13
2023-01-09T08:58:15.043Z,113.87
2023-01-09T09:00:43.247Z,120.10
2023-01-09T09:03:12.250Z,128.17
2023-01-09T09:05:40.361Z,115.00
2023-01-09T09:08:08.593Z,116.50
2023-01-09T09:10:37.437Z,119.93
2023-01-09T09:13:05.674Z,136.13
2023-01-09T09:15:38.228Z,131.10
2023-01-09T09:18:09.321Z,116.77
2023-01-09T09:20:40.486Z,125.53
2023-01-09T09:23:09.344Z,126.13
2023-01-09T09:25:38.712Z,122.17
2023-01-09T09:28:08.089Z,118.20
2023-01-09T09:30:40.261Z,119.33
2023-01-09T09:33:08.590Z,113.27
2023-01-09T09:35:36.614Z,105.60
2023-01-09T09:38:06.327Z,113.37
2023-01-09T09:40:48.456Z,99.33
2023-01-09T09:43:53.370Z,101.90
2023-01-09T09:46:32.351Z,94.30
2023-01-09T09:49:07.172Z,104.63
2023-01-09T09:51:57.797Z,111.60
2023-01-09T09:54:31.364Z,113.70
2023-01-09T09:57:02.766Z,112.87
2023-01-09T09:59:33.795Z,124.37
2023-01-09T10:02:11.489Z,128.97
2023-01-09T10:04:46.812Z,137.30
2023-01-09T10:07:21.321Z,146.27
2023-01-09T10:09:55.739Z,135.63
2023-01-09T10:12:29.971Z,126.97
2023-01-09T10:15:01.328Z,131.93
2023-01-09T10:17:44.473Z,131.23
2023-01-09T10:20:49.564Z,141.93
2023-01-09T10:23:35.604Z,145.13
2023-01-09T10:26:12.478Z,134.10
2023-01-09T10:29:00.887Z,126.03
2023-01-09T10:31:36.672Z,121.40
2023-01-09T10:34:20.644Z,130.97
2023-01-09T10:37:01.151Z,125.13
2023-01-09T10:39:35.377Z,131.00
2023-01-09T10:42:12.321Z,112.73
2023-01-09T10:44:48.533Z,117.10
2023-01-09T10:47:20.065Z,95.80
2023-01-09T10:49:52.172Z,100.63
2023-01-09T10:52:25.270Z,97.80
2023-01-09T10:54:57.211Z,98.40
2023-01-09T10:57:44.244Z,106.33
2023-01-09T11:00:22.328Z,101.80
2023-01-09T11:02:52.326Z,116.50
2023-01-09T11:05:24.627Z,107.93
2023-01-09T11:07:57.230Z,107.90
2023-01-09T11:10:45.193Z,114.97
2023-01-09T11:13:16.500Z,103.17
2023-01-09T11:15:44.729Z,117.63
2023-01-09T11:18:22.249Z,115.10
2023-01-09T11:20:52.367Z,139.90
2023-01-09T11:23:32.975Z,163.00
2023-01-09T11:26:03.449Z,153.60
2023-01-09T11:28:31.735Z,150.03
2023-01-09T11:31:02.005Z,159.33
2023-01-09T11:33:31.954Z,170.67
2023-01-09T11:36:11.015Z,143.00
2023-01-09T11:38:51.490Z,166.23
2023-01-09T11:41:22.009Z,167.10
2023-01-09T11:43:52.365Z,143.10
2023-01-09T11:46:38.697Z,134.47
2023-01-09T11:49:22.733Z,148.80
2023-01-09T11:54:53.539Z,123.57
2023-01-09T11:57:22.925Z,115.30
2023-01-09T11:59:51.807Z,121.40
2023-01-09T12:02:43.733Z,121.03
2023-01-09T12:05:26.164Z,123.73
2023-01-09T12:08:10.057Z,124.70
2023-01-09T12:11:04.461Z,131.50
2023-01-09T12:13:50.193Z,139.90
2023-01-09T12:16:28.431Z,118.67
2023-01-09T12:19:12.260Z,133.10
2023-01-09T12:21:47.503Z,137.57
2023-01-09T12:24:51.223Z,120.33
2023-01-09T12:27:31.374Z,127.07
2023-01-09T12:30:16.739Z,152.47
2023-01-09T12:32:57.281Z,140.33
2023-01-09T12:35:35.119Z,147.10
2023-01-09T12:38:21.951Z,138.80
2023-01-09T12:41:25.255Z,140.73
2023-01-09T12:44:10.837Z,151.90
2023-01-09T12:46:46.998Z,138.80
2023-01-09T12:49:29.722Z,153.67
2023-01-09T12:52:05.400Z,158.73
2023-01-09T12:54:42.568Z,154.20
2023-01-09T12:57:19.729Z,135.63
2023-01-09T12:59:55.223Z,124.83
2023-01-09T13:02:29.027Z,134.93
2023-01-09T13:05:01.220Z,148.60
2023-01-09T13:07:35.745Z,140.73
2023-01-09T13:10:09.070Z,148.83
2023-01-09T13:12:42.504Z,152.67
2023-01-09T13:15:27.777Z,128.97
2023-01-09T13:18:01.393Z,130.93
2023-01-09T13:20:35.231Z,132.23
2023-01-09T13:23:05.469Z,132.00
2023-01-09T13:25:41.216Z,121.07
2023-01-09T13:28:17.276Z,142.80
2023-01-09T13:30:58.918Z,138.70
2023-01-09T13:33:30.400Z,145.77
2023-01-09T13:36:02.947Z,143.17
2023-01-09T13:38:33.055Z,141.93
2023-01-09T13:41:33.136Z,140.47
2023-01-09T13:44:03.310Z,157.53
2023-01-09T13:46:43.735Z,148.30
2023-01-09T13:49:50.221Z,137.37
2023-01-09T13:52:34.227Z,150.80
2023-01-09T13:55:25.160Z,144.47
2023-01-09T13:58:19.232Z,145.60
2023-01-09T14:00:52.880Z,143.63
2023-01-09T14:03:26.424Z,141.87
2023-01-09T14:06:18.410Z,151.13
2023-01-09T14:08:49.033Z,141.40
2023-01-09T14:11:27.600Z,152.30
2023-01-09T14:14:04.525Z,149.47
2023-01-09T14:16:33.302Z,144.63
2023-01-09T14:19:18.217Z,144.03
2023-01-09T14:21:49.728Z,152.40
2023-01-09T14:24:30.508Z,138.97
2023-01-09T14:27:00.639Z,145.97
2023-01-09T14:29:47.759Z,151.93
2023-01-09T14:32:39.075Z,141.10
2023-01-09T14:35:16.229Z,130.07
2023-01-09T14:37:46.381Z,139.97
2023-01-09T14:40:22.879Z,147.40
2023-01-09T14:42:55.120Z,137.47
2023-01-09T14:45:26.191Z,130.43
2023-01-09T14:47:59.401Z,138.57
2023-01-09T14:50:34.680Z,133.47
2023-01-09T14:53:08.187Z,138.70
2023-01-09T14:55:44.944Z,129.33
2023-01-09T14:58:14.175Z,113.53
2023-01-09T15:01:03.837Z,135.23
2023-01-09T15:03:38.117Z,127.87
2023-01-09T15:06:13.748Z,125.30
2023-01-09T15:08:46.778Z,113.87
2023-01-09T15:11:15.468Z,128.53
2023-01-09T15:13:47.812Z,116.20
2023-01-09T15:16:20.581Z,139.10
2023-01-09T15:18:52.941Z,134.40
2023-01-09T15:21:25.861Z,116.00
2023-01-09T15:23:54.435Z,127.90
2023-01-09T15:26:26.588Z,126.40
2023-01-09T15:29:01.890Z,119.00
2023-01-09T15:31:30.747Z,115.67
2023-01-09T15:33:58.962Z,105.23
2023-01-09T15:36:31.270Z,121.27
2023-01-09T15:39:00.745Z,110.10
2023-01-09T15:41:49.077Z,107.77
2023-01-09T15:44:20.094Z,155.50
2023-01-09T15:46:50.211Z,117.50
2023-01-09T15:49:19.270Z,113.63
2023-01-09T15:51:50.168Z,120.93
2023-01-09T15:54:22.107Z,114.33
2023-01-09T15:56:50.296Z,109.33
2023-01-09T15:59:27.108Z,113.67
2023-01-09T16:02:15.844Z,115.20
2023-01-09T16:04:44.146Z,107.60
2023-01-09T16:07:17.052Z,111.97
2023-01-09T16:09:47.681Z,138.37
2023-01-09T16:12:21.160Z,139.63
2023-01-09T16:14:53.718Z,134.00
2023-01-09T16:17:26.647Z,116.70
2023-01-09T16:19:57.981Z,130.33
2023-01-09T16:22:29.756Z,117.70
2023-01-09T16:25:00.974Z,130.10
2023-01-09T16:27:30.812Z,119.23
2023-01-09T16:30:00.619Z,124.10
2023-01-09T16:32:30.923Z,140.93
2023-01-09T16:35:02.700Z,135.20
2023-01-09T16:37:33.464Z,133.17
2023-01-09T16:40:26.543Z,150.47
2023-01-09T16:43:03.459Z,127.33
2023-01-09T16:45:34.513Z,127.70
2023-01-09T16:48:03.303Z,128.83
2023-01-09T16:50:31.376Z,121.53
2023-01-09T16:53:04.293Z,128.03
2023-01-09T16:55:32.827Z,139.93
2023-01-09T16:58:00.981Z,132.07
2023-01-09T17:00:29.201Z,121.90
2023-01-09T17:02:58.313Z,126.40
2023-01-09T17:05:26.418Z,131.63
2023-01-09T17:07:55.978Z,129.60
2023-01-09T17:10:25.894Z,117.80
2023-01-09T17:12:54.016Z,141.17
2023-01-09T17:15:22.128Z,122.17
2023-01-09T17:17:50.287Z,123.40
2023-01-09T17:20:19.402Z,131.97
2023-01-09T17:22:47.568Z,135.10
2023-01-09T17:25:34.425Z,144.20
2023-01-09T17:28:22.384Z,134.63
2023-01-09T17:30:50.548Z,146.43
2023-01-09T17:33:19.899Z,132.73
2023-01-09T17:35:48.203Z,138.43
2023-01-09T17:38:16.816Z,137.87
2023-01-09T17:40:45.957Z,133.67
2023-01-09T17:43:16.209Z,138.70
2023-01-09T17:45:44.884Z,130.57
2023-01-09T17:48:17.839Z,138.97
2023-01-09T17:50:46.529Z,145.37
2023-01-09T17:53:14.973Z,146.60
2023-01-09T17:55:43.551Z,155.00
2023-01-09T17:58:26.067Z,134.80
2023-01-09T18:00:54.656Z,148.47
2023-01-09T18:03:23.240Z,154.83
2023-01-09T18:05:52.304Z,145.93
2023-01-09T18:08:20.585Z,145.40
2023-01-09T18:10:49.116Z,159.83
2023-01-09T18:13:18.722Z,170.23
2023-01-09T18:15:47.358Z,164.53
2023-01-09T18:18:16.327Z,177.83
2023-01-09T18:20:45.666Z,173.13
2023-01-09T18:23:13.899Z,171.00
2023-01-09T18:25:43.158Z,173.30
2023-01-09T18:28:15.049Z,178.17
2023-01-09T18:30:45.649Z,158.77
2023-01-09T18:33:14.461Z,152.53
2023-01-09T18:35:43.007Z,174.43
2023-01-09T18:38:11.415Z,178.60
2023-01-09T18:40:41.857Z,167.33
2023-01-09T18:43:11.602Z,163.77
2023-01-09T18:45:40.208Z,153.70
2023-01-09T18:48:12.802Z,150.93
2023-01-09T18:50:40.949Z,159.17
2023-01-09T18:53:09.102Z,163.47
2023-01-09T18:55:38.087Z,157.80
2023-01-09T18:58:06.728Z,140.20
2023-01-09T19:00:35.080Z,148.60
2023-01-09T19:03:03.092Z,152.97
2023-01-09T19:05:34.722Z,140.60
2023-01-09T19:08:02.770Z,135.60
2023-01-09T19:10:30.895Z,139.20
2023-01-09T19:12:58.985Z,137.10
2023-01-09T19:15:29.775Z,136.50
2023-01-09T19:17:58.472Z,132.47
2023-01-09T19:20:26.595Z,144.27
2023-01-09T19:22:59.636Z,136.30
2023-01-09T19:25:27.925Z,129.63
2023-01-09T19:27:56.260Z,139.30
2023-01-09T19:30:24.387Z,140.87
2023-01-09T19:32:53.609Z,172.40
2023-01-09T19:35:21.754Z,153.33
2023-01-09T19:37:49.908Z,133.07
2023-01-09T19:40:19.788Z,128.83
2023-01-09T19:42:47.945Z,131.13
2023-01-09T19:45:16.080Z,120.83
2023-01-09T19:47:44.146Z,132.73
2023-01-09T19:50:13.522Z,132.80
2023-01-09T19:52:43.796Z,122.10
2023-01-09T19:55:13.707Z,117.07
2023-01-09T19:57:44.285Z,117.20
2023-01-09T20:00:13.989Z,114.90
2023-01-09T20:02:43.261Z,109.20
2023-01-09T20:05:11.908Z,116.37
2023-01-09T20:07:40.342Z,106.63
2023-01-09T20:10:09.492Z,100.33
2023-01-09T20:12:37.684Z,113.43
2023-01-09T20:15:12.853Z,110.67
2023-01-09T20:17:41.407Z,111.70
2023-01-09T20:20:10.965Z,106.93
2023-01-09T20:22:39.127Z,109.40
2023-01-09T20:25:10.522Z,96.60
2023-01-09T20:27:38.753Z,102.73
2023-01-09T20:30:10.118Z,99.87
2023-01-09T20:32:38.476Z,99.03
2023-01-09T20:35:07.326Z,102.70
2023-01-09T20:37:35.431Z,104.37
2023-01-09T20:40:03.553Z,105.10
2023-01-09T20:42:32.630Z,108.37
2023-01-09T20:45:00.882Z,104.53
2023-01-09T20:47:31.094Z,98.10
2023-01-09T20:49:59.410Z,102.13
2023-01-09T20:52:27.513Z,100.97
2023-01-09T20:54:55.697Z,97.60
2023-01-09T20:57:23.883Z,104.10
2023-01-09T20:59:52.143Z,102.40
2023-01-09T21:02:25.168Z,105.63
2023-01-09T21:04:54.651Z,104.60
2023-01-09T21:07:25.690Z,102.43
2023-01-09T21:09:53.848Z,89.87
2023-01-09T21:12:34.715Z,98.53
2023-01-09T21:15:05.241Z,112.87
2023-01-09T21:17:37.551Z,109.10
2023-01-09T21:20:09.875Z,105.77
2023-01-09T21:22:38.618Z,115.13
2023-01-09T21:25:08.084Z,106.70
2023-01-09T21:27:40.203Z,106.53
2023-01-09T21:30:10.308Z,114.27
2023-01-09T21:32:38.648Z,109.57
2023-01-09T21:35:08.907Z,111.87
2023-01-09T21:37:38.864Z,120.17
2023-01-09T21:40:13.006Z,116.90
2023-01-09T21:42:58.708Z,116.73
2023-01-09T21:45:40.705Z,112.07
2023-01-09T21:48:10.483Z,121.33
2023-01-09T21:50:41.223Z,112.00
2023-01-09T21:53:12.960Z,115.50
2023-01-09T21:55:41.113Z,125.33
2023-01-09T21:58:09.161Z,119.23
2023-01-09T22:00:37.276Z,119.77
2023-01-09T22:03:09.278Z,117.53
2023-01-09T22:05:39.286Z,125.63
2023-01-09T22:08:07.681Z,124.67
2023-01-09T22:10:35.738Z,115.90
2023-01-09T22:13:17.821Z,117.13
2023-01-09T22:15:47.524Z,112.10
2023-01-09T22:18:15.614Z,108.57
2023-01-09T22:20:46.160Z,98.73
2023-01-09T22:23:32.601Z,106.90
2023-01-09T22:26:01.115Z,102.93
2023-01-09T22:28:29.208Z,110.23
2023-01-09T22:30:57.291Z,113.30
2023-01-09T22:33:25.413Z,108.17
2023-01-09T22:35:55.630Z,115.70
2023-01-09T22:38:23.799Z,108.20
2023-01-09T22:40:51.963Z,105.60
2023-01-09T22:43:20.047Z,114.80
2023-01-09T22:45:48.279Z,108.63
2023-01-09T22:48:16.445Z,111.90
2023-01-09T22:50:44.567Z,114.77
2023-01-09T22:53:14.193Z,114.00
2023-01-09T22:55:42.319Z,110.03
2023-01-09T22:58:10.600Z,113.57
2023-01-09T23:00:38.685Z,119.27
2023-01-09T23:03:06.727Z,110.10
2023-01-09T23:05:34.893Z,110.07
2023-01-09T23:08:03.055Z,103.73
2023-01-09T23:10:32.695Z,106.73
2023-01-09T23:13:00.883Z,109.47
2023-01-09T23:15:29.050Z,103.70
2023-01-09T23:17:57.106Z,107.57
2023-01-09T23:20:25.337Z,110.40
2023-01-09T23:22:53.496Z,105.80
2023-01-09T23:25:21.553Z,95.37
2023-01-09T23:27:51.006Z,107.50
2023-01-09T23:30:19.284Z,109.27
2023-01-09T23:32:48.524Z,126.37
2023-01-09T23:35:17.489Z,110.50
2023-01-09T23:37:45.728Z,108.10
2023-01-09T23:40:14.317Z,110.77
2023-01-09T23:42:59.589Z,97.53
2023-01-09T23:45:29.189Z,104.90
2023-01-09T23:47:57.221Z,93.97
2023-01-09T23:50:25.282Z,103.73
2023-01-09T23:52:53.389Z,99.47
2023-01-09T23:55:21.587Z,118.97
2023-01-09T23:57:54.408Z,111.97
